Time;durP1;ratioP1;P1;durP2;ratioP2;P2;SDS_P1;SDS_P2;PMS_P1;PMS_P2;Temp;Humidity;BMP_temperature;BMP_pressure;BME280_temperature;BME280_humidity;BME280_pressure;Samples;Min_cycle;Max_cycle;Signal;HPM_P1;HPM_P2
2023/08/04 00:01:58;;;;;;;2.17;0.60;;;;;;;;;;5062782;28;20211;-26
2023/08/04 00:04:25;;;;;;;1.30;0.33;;;;;;;;;;5070015;28;20227;-25
2023/08/04 00:06:53;;;;;;;0.57;0.40;;;;;;;;;;5061286;28;20210;-24
2023/08/04 00:09:20;;;;;;;0.93;0.80;;;;;;;;;;5060771;28;20230;-27
2023/08/04 00:11:47;;;;;;;2.63;0.77;;;;;;;;;;5051532;28;20210;-24
2023/08/04 00:14:14;;;;;;;0.93;0.50;;;;;;;;;;5061671;28;20205;-26
2023/08/04 00:16:41;;;;;;;0.90;0.57;;;;;;;;;;5071869;28;20205;-26
2023/08/04 00:19:10;;;;;;;0.83;0.63;;;;;;;;;;5073007;28;20225;-28
2023/08/04 00:21:37;;;;;;;1.13;0.40;;;;;;;;;;5066995;28;20209;-28
2023/08/04 00:24:04;;;;;;;3.40;0.80;;;;;;;;;;5053311;28;20232;-26
2023/08/04 00:26:32;;;;;;;0.50;0.50;;;;;;;;;;5063821;28;20212;-27
2023/08/04 00:28:59;;;;;;;1.07;0.60;;;;;;;;;;5059654;28;20236;-25
2023/08/04 00:31:26;;;;;;;2.60;0.57;;;;;;;;;;5065510;28;20205;-26
2023/08/04 00:33:55;;;;;;;1.57;0.40;;;;;;;;;;5052148;28;20688;-27
2023/08/04 00:36:23;;;;;;;0.87;0.60;;;;;;;;;;5052054;28;20788;-26
2023/08/04 00:38:50;;;;;;;1.03;0.60;;;;;;;;;;5064868;28;20266;-27
2023/08/04 00:41:17;;;;;;;2.43;0.80;;;;;;;;;;5075905;28;20208;-26
2023/08/04 00:43:44;;;;;;;1.63;0.50;;;;;;;;;;5060579;28;20654;-26
2023/08/04 00:46:12;;;;;;;0.53;0.50;;;;;;;;;;5063575;28;20244;-28
2023/08/04 00:48:39;;;;;;;0.40;0.40;;;;;;;;;;5072820;28;20247;-29
2023/08/04 00:51:06;;;;;;;0.60;0.60;;;;;;;;;;5064120;28;20215;-25
2023/08/04 00:53:35;;;;;;;0.93;0.73;;;;;;;;;;5063463;28;20216;-25
2023/08/04 00:56:02;;;;;;;1.20;0.70;;;;;;;;;;5074429;28;20197;-26
2023/08/04 00:58:30;;;;;;;1.40;0.67;;;;;;;;;;5062550;28;20209;-26
2023/08/04 01:01:32;;;;;;;1.43;0.60;;;;;;;;;;5067144;28;20269;-26
2023/08/04 01:04:00;;;;;;;1.93;0.60;;;;;;;;;;5067160;28;20730;-25
2023/08/04 01:06:30;;;;;;;1.07;0.80;;;;;;;;;;5069565;28;20224;-26
2023/08/04 01:09:02;;;;;;;0.57;0.57;;;;;;;;;;5065060;28;20259;-27
2023/08/04 04:15:05;;;;;;;0.67;0.60;;;;;;;;;;5057702;28;20195;-28
2023/08/04 04:27:14;;;;;;;;;;;;;;;;;;;;;
2023/08/04 07:34:44;;;;;;;2.07;0.93;;;;;;;;;;5082149;28;20209;-27
2023/08/04 08:39:59;;;;;;;3.85;0.80;;;;;;;;;;5092922;28;20294;-32
2023/08/04 08:42:59;;;;;;;1.90;0.77;;;;;;;;;;5080118;28;20220;-35
2023/08/04 08:45:35;;;;;;;0.67;0.50;;;;;;;;;;5085160;28;20311;-33
2023/08/04 08:48:15;;;;;;;1.67;0.87;;;;;;;;;;5075010;28;20267;-36
2023/08/04 08:56:59;;;;;;;2.00;0.65;;;;;;;;;;5086433;28;20215;-32
2023/08/04 08:59:36;;;;;;;0.50;0.50;;;;;;;;;;5087406;28;20224;-36
2023/08/04 09:02:08;;;;;;;1.83;0.80;;;;;;;;;;5093440;28;20200;-33
2023/08/04 10:05:36;;;;;;;0.40;0.40;;;;;;;;;;5056970;28;20160;-33
2023/08/04 11:44:41;;;;;;;1.63;0.70;;;;;;;;;;4841834;29;20293;-30
2023/08/04 15:43:44;;;;;;;1.00;0.90;;;;;;;;;;4983982;28;20260;-41
2023/08/04 16:51:20;;;;;;;0.90;0.90;;;;;;;;;;5002100;28;20212;-40
2023/08/04 19:57:29;;;;;;;1.70;1.60;;;;;;;;;;4937545;29;20275;-31
2023/08/04 20:19:16;;;;;;;1.97;1.70;;;;;;;;;;4967742;28;20594;-31
2023/08/04 20:52:48;;;;;;;;;;;;;;;;;;;;;
2023/08/04 21:08:13;;;;;;;;;;;;;;;;;;;;;
2023/08/04 21:10:42;;;;;;;2.53;2.33;;;;;;;;;;5046855;22;20217;-26
2023/08/04 21:13:09;;;;;;;3.10;2.53;;;;;;;;;;5081010;28;20285;-28
2023/08/04 21:15:36;;;;;;;3.37;2.53;;;;;;;;;;5092927;28;20201;-27
2023/08/04 21:18:03;;;;;;;3.37;2.63;;;;;;;;;;5090750;28;20196;-28
2023/08/04 21:20:30;;;;;;;2.47;2.27;;;;;;;;;;5093304;28;20233;-32
2023/08/04 21:22:57;;;;;;;2.77;2.57;;;;;;;;;;5086257;28;20201;-31
2023/08/04 21:25:24;;;;;;;2.77;2.50;;;;;;;;;;5081159;28;20206;-31
2023/08/04 21:27:53;;;;;;;4.27;3.00;;;;;;;;;;5086335;28;20230;-28
2023/08/04 21:30:21;;;;;;;3.97;2.80;;;;;;;;;;5087276;28;20227;-31
2023/08/04 21:32:48;;;;;;;2.90;2.70;;;;;;;;;;5092861;28;20245;-31
2023/08/04 21:35:16;;;;;;;3.07;2.70;;;;;;;;;;5092878;28;20213;-30
2023/08/04 21:37:43;;;;;;;3.50;3.00;;;;;;;;;;5087395;28;20268;-28
2023/08/04 21:40:10;;;;;;;4.47;3.40;;;;;;;;;;5091844;28;20230;-27
2023/08/04 21:42:37;;;;;;;3.80;2.80;;;;;;;;;;5089848;28;20203;-30
2023/08/04 21:45:06;;;;;;;3.33;3.00;;;;;;;;;;5089316;28;20201;-29
2023/08/04 21:47:33;;;;;;;3.90;3.33;;;;;;;;;;5089220;28;20225;-31
2023/08/04 21:50:01;;;;;;;5.40;3.20;;;;;;;;;;5096335;28;20235;-28
2023/08/04 21:52:28;;;;;;;3.73;3.10;;;;;;;;;;5091748;28;20207;-30
2023/08/04 21:54:57;;;;;;;5.03;2.87;;;;;;;;;;5083180;28;20205;-26
2023/08/04 21:57:24;;;;;;;3.17;2.90;;;;;;;;;;5079601;28;20202;-28
2023/08/04 21:59:51;;;;;;;3.60;3.03;;;;;;;;;;5086167;28;20223;-29
2023/08/04 22:02:19;;;;;;;5.33;3.20;;;;;;;;;;5081423;28;20291;-33
2023/08/04 22:04:47;;;;;;;4.40;3.37;;;;;;;;;;5078222;28;20565;-29
2023/08/04 22:07:14;;;;;;;4.60;3.20;;;;;;;;;;5085082;28;20224;-28
2023/08/04 22:09:41;;;;;;;4.20;3.33;;;;;;;;;;5091300;28;20221;-26
2023/08/04 22:12:08;;;;;;;5.30;3.70;;;;;;;;;;5080547;28;20199;-30
2023/08/04 22:14:36;;;;;;;6.00;3.57;;;;;;;;;;5087214;28;20491;-28
2023/08/04 22:17:03;;;;;;;4.20;3.70;;;;;;;;;;5080628;28;20200;-30
2023/08/04 22:19:32;;;;;;;4.63;3.20;;;;;;;;;;5088801;28;20226;-27
2023/08/04 22:21:59;;;;;;;2.97;2.30;;;;;;;;;;5083705;28;20283;-29
2023/08/04 22:24:26;;;;;;;5.07;3.40;;;;;;;;;;5085934;28;20203;-30
2023/08/04 22:26:54;;;;;;;3.30;3.00;;;;;;;;;;5084276;28;20226;-27
2023/08/04 22:29:21;;;;;;;4.63;3.93;;;;;;;;;;5086050;28;20716;-29
2023/08/04 22:31:48;;;;;;;2.80;2.50;;;;;;;;;;5091228;28;20198;-28
2023/08/04 22:34:16;;;;;;;4.50;3.57;;;;;;;;;;5081931;28;20214;-27
2023/08/04 22:36:44;;;;;;;3.27;2.30;;;;;;;;;;5074939;28;20213;-29
2023/08/04 22:39:12;;;;;;;3.40;3.10;;;;;;;;;;5089442;28;20233;-28
2023/08/04 22:41:39;;;;;;;3.53;2.90;;;;;;;;;;5080277;28;20201;-31
2023/08/04 22:44:06;;;;;;;4.50;3.63;;;;;;;;;;5074521;28;20197;-31
2023/08/04 22:46:34;;;;;;;4.03;3.07;;;;;;;;;;5090403;28;20202;-27
2023/08/04 22:49:01;;;;;;;4.23;3.83;;;;;;;;;;5083862;28;20222;-28
2023/08/04 22:51:31;;;;;;;3.70;3.30;;;;;;;;;;5086449;28;20205;-27
2023/08/04 22:53:59;;;;;;;5.10;3.80;;;;;;;;;;5088394;28;20293;-28
2023/08/04 22:56:26;;;;;;;4.03;3.63;;;;;;;;;;5081324;28;20213;-31
2023/08/04 22:58:54;;;;;;;4.33;3.60;;;;;;;;;;5084560;28;20217;-28
2023/08/04 23:01:21;;;;;;;6.50;3.83;;;;;;;;;;5083674;28;20301;-28
2023/08/04 23:03:48;;;;;;;6.60;4.30;;;;;;;;;;5083398;28;20200;-31
2023/08/04 23:06:16;;;;;;;4.17;3.23;;;;;;;;;;5082837;28;20209;-32
2023/08/04 23:08:43;;;;;;;5.67;4.30;;;;;;;;;;5080712;28;20225;-32
2023/08/04 23:11:11;;;;;;;7.67;3.80;;;;;;;;;;5081232;28;20257;-30
2023/08/04 23:13:38;;;;;;;5.07;3.97;;;;;;;;;;5073666;28;20202;-27
2023/08/04 23:16:06;;;;;;;5.53;4.00;;;;;;;;;;5083105;28;20479;-27
2023/08/04 23:18:37;;;;;;;3.77;3.47;;;;;;;;;;5088604;28;20210;-28
2023/08/04 23:21:04;;;;;;;4.33;3.93;;;;;;;;;;5084108;28;20214;-32
2023/08/04 23:23:31;;;;;;;4.03;3.63;;;;;;;;;;5089534;28;20211;-28
2023/08/04 23:25:58;;;;;;;4.20;3.13;;;;;;;;;;5080943;28;20206;-31
2023/08/04 23:28:26;;;;;;;4.73;3.37;;;;;;;;;;5073874;28;20578;-31
2023/08/04 23:30:55;;;;;;;3.77;3.47;;;;;;;;;;5080248;28;20570;-31
2023/08/04 23:33:22;;;;;;;4.17;3.10;;;;;;;;;;5090694;28;20209;-28
2023/08/04 23:35:53;;;;;;;4.93;3.47;;;;;;;;;;5082973;28;20202;-30
2023/08/04 23:38:20;;;;;;;6.53;3.57;;;;;;;;;;5089035;28;20200;-29
2023/08/04 23:40:47;;;;;;;3.57;3.23;;;;;;;;;;5075225;28;20202;-31
2023/08/04 23:43:14;;;;;;;3.70;3.33;;;;;;;;;;5067084;28;20223;-29
2023/08/04 23:45:43;;;;;;;6.87;3.53;;;;;;;;;;5076399;28;20201;-27
2023/08/04 23:48:10;;;;;;;5.80;3.50;;;;;;;;;;5071925;28;20256;-28
2023/08/04 23:50:37;;;;;;;4.13;3.00;;;;;;;;;;5071542;28;20205;-31
2023/08/04 23:53:04;;;;;;;3.90;3.43;;;;;;;;;;5089882;28;20209;-33
2023/08/04 23:55:32;;;;;;;7.03;3.70;;;;;;;;;;5077103;28;20574;-30
2023/08/04 23:57:59;;;;;;;3.97;2.90;;;;;;;;;;5076688;28;20294;-32
